Terminal Aerodrome Forecast
Issued by NWS

Home | Current Version | Previous Version | Text Only | Print | Product List | Glossary Off
Versions: 1 2 3 4 5 6 7 8 9 10 11 12 13

000
FTUS45 KGGW 202044 AAA
TAFGDV
TAF AMD
KGDV 202044Z 2021/2118 32022G29KT P6SM SCT060 BKN100
     FM210000 33013G24KT P6SM BKN100
     FM211400 32007KT P6SM FEW250=

USA.gov is the U.S. government's official web portal to all federal, state and local government web resources and services.